Pilot Butte, Canada
Current Conditions -  °F | °C
As of 7:00 PM on Thursday 27 Nov 2014 (Local Time) from CYQR Reporting Station
Light Snow Light Snow  
Wind Chill:   Ceiling: 5200
Heat Index: 19°   Visibility: 15mi
Dew Point: 16°   Wind: 12mph
Humidity: 86%   Direction: 100°E
Pressure: 29.91"   Gusts: 17mph
Location:  50.48°N, 104.42°W
Report Text: CYQR 280100Z 10010G15KT 15SM -SN DRSN OVC052 M07/M09 A2991 RMK SC8 SLP172
Loading
Personal Weather Stations






























Interactive Weather Map New forecast layout! Learn more

10-Day Weather Forecast

Advertisements
Track Severe Weather on mobile